sensor_id;sensor_type;location;lat;lon;timestamp;P1;durP1;ratioP1;P2;durP2;ratioP2
5987;SDS011;3021;51.000;6.980;2023-03-01T00:00:11;12.98;;;7.60;;
5987;SDS011;3021;51.000;6.980;2023-03-01T00:02:37;12.23;;;7.32;;
5987;SDS011;3021;51.000;6.980;2023-03-01T00:05:02;13.15;;;7.95;;
5987;SDS011;3021;51.000;6.980;2023-03-01T00:07:28;12.98;;;7.88;;
5987;SDS011;3021;51.000;6.980;2023-03-01T00:09:54;16.35;;;7.45;;
5987;SDS011;3021;51.000;6.980;2023-03-01T00:12:19;15.63;;;7.18;;
5987;SDS011;3021;51.000;6.980;2023-03-01T00:14:45;11.77;;;7.25;;
5987;SDS011;3021;51.000;6.980;2023-03-01T00:17:10;11.02;;;6.78;;
5987;SDS011;3021;51.000;6.980;2023-03-01T00:19:36;12.70;;;7.65;;
5987;SDS011;3021;51.000;6.980;2023-03-01T00:22:02;14.98;;;8.20;;
5987;SDS011;3021;51.000;6.980;2023-03-01T00:24:27;10.73;;;7.20;;
5987;SDS011;3021;51.000;6.980;2023-03-01T00:26:53;17.13;;;7.95;;
5987;SDS011;3021;51.000;6.980;2023-03-01T00:29:21;12.60;;;7.03;;
5987;SDS011;3021;51.000;6.980;2023-03-01T00:31:47;11.43;;;7.13;;
5987;SDS011;3021;51.000;6.980;2023-03-01T00:34:13;11.68;;;7.30;;
5987;SDS011;3021;51.000;6.980;2023-03-01T00:36:38;14.15;;;7.03;;
5987;SDS011;3021;51.000;6.980;2023-03-01T00:39:04;15.48;;;8.13;;
5987;SDS011;3021;51.000;6.980;2023-03-01T00:41:32;13.50;;;7.72;;
5987;SDS011;3021;51.000;6.980;2023-03-01T00:43:59;13.35;;;7.45;;
5987;SDS011;3021;51.000;6.980;2023-03-01T00:46:26;17.30;;;7.43;;
5987;SDS011;3021;51.000;6.980;2023-03-01T00:48:52;12.43;;;7.65;;
5987;SDS011;3021;51.000;6.980;2023-03-01T00:51:25;10.68;;;6.60;;
5987;SDS011;3021;51.000;6.980;2023-03-01T00:53:52;11.15;;;7.20;;
5987;SDS011;3021;51.000;6.980;2023-03-01T00:56:20;11.25;;;6.72;;
5987;SDS011;3021;51.000;6.980;2023-03-01T00:58:46;12.65;;;7.68;;
5987;SDS011;3021;51.000;6.980;2023-03-01T01:01:16;13.80;;;7.72;;
5987;SDS011;3021;51.000;6.980;2023-03-01T01:03:44;10.68;;;7.03;;
5987;SDS011;3021;51.000;6.980;2023-03-01T01:06:17;13.90;;;7.63;;
5987;SDS011;3021;51.000;6.980;2023-03-01T01:08:44;11.32;;;7.65;;
5987;SDS011;3021;51.000;6.980;2023-03-01T01:11:10;13.95;;;7.20;;
5987;SDS011;3021;51.000;6.980;2023-03-01T01:13:37;13.80;;;7.32;;
5987;SDS011;3021;51.000;6.980;2023-03-01T01:16:03;12.45;;;7.55;;
5987;SDS011;3021;51.000;6.980;2023-03-01T01:18:29;11.45;;;6.97;;
5987;SDS011;3021;51.000;6.980;2023-03-01T01:20:55;12.95;;;7.60;;
5987;SDS011;3021;51.000;6.980;2023-03-01T01:23:20;13.52;;;6.95;;
5987;SDS011;3021;51.000;6.980;2023-03-01T01:25:45;12.95;;;6.82;;
5987;SDS011;3021;51.000;6.980;2023-03-01T01:28:11;15.07;;;7.20;;
5987;SDS011;3021;51.000;6.980;2023-03-01T01:30:36;14.48;;;7.70;;
5987;SDS011;3021;51.000;6.980;2023-03-01T01:33:02;12.20;;;7.65;;
5987;SDS011;3021;51.000;6.980;2023-03-01T01:35:27;11.63;;;6.75;;
5987;SDS011;3021;51.000;6.980;2023-03-01T01:37:53;12.73;;;7.18;;
5987;SDS011;3021;51.000;6.980;2023-03-01T01:40:18;11.70;;;6.85;;
5987;SDS011;3021;51.000;6.980;2023-03-01T01:42:44;11.65;;;7.10;;
5987;SDS011;3021;51.000;6.980;2023-03-01T01:47:57;11.68;;;7.63;;
5987;SDS011;3021;51.000;6.980;2023-03-01T01:50:25;12.55;;;7.63;;
5987;SDS011;3021;51.000;6.980;2023-03-01T01:52:52;13.60;;;7.97;;
5987;SDS011;3021;51.000;6.980;2023-03-01T01:55:22;15.40;;;7.85;;
5987;SDS011;3021;51.000;6.980;2023-03-01T01:57:53;12.13;;;7.25;;
5987;SDS011;3021;51.000;6.980;2023-03-01T02:00:23;12.65;;;7.22;;
5987;SDS011;3021;51.000;6.980;2023-03-01T02:03:33;10.00;;;6.88;;
5987;SDS011;3021;51.000;6.980;2023-03-01T02:05:52;11.40;;;7.80;;
5987;SDS011;3021;51.000;6.980;2023-03-01T02:08:23;12.95;;;7.40;;
5987;SDS011;3021;51.000;6.980;2023-03-01T02:10:51;11.13;;;7.28;;
5987;SDS011;3021;51.000;6.980;2023-03-01T02:13:19;15.80;;;8.55;;
5987;SDS011;3021;51.000;6.980;2023-03-01T02:15:45;13.35;;;7.95;;
5987;SDS011;3021;51.000;6.980;2023-03-01T02:18:12;14.07;;;8.20;;
5987;SDS011;3021;51.000;6.980;2023-03-01T02:23:23;16.30;;;8.73;;
5987;SDS011;3021;51.000;6.980;2023-03-01T02:28:32;13.73;;;8.13;;
5987;SDS011;3021;51.000;6.980;2023-03-01T02:31:00;11.98;;;8.00;;
5987;SDS011;3021;51.000;6.980;2023-03-01T02:33:45;14.57;;;8.50;;
5987;SDS011;3021;51.000;6.980;2023-03-01T02:36:15;13.18;;;8.15;;
5987;SDS011;3021;51.000;6.980;2023-03-01T02:38:42;13.05;;;7.80;;
5987;SDS011;3021;51.000;6.980;2023-03-01T02:41:09;13.30;;;8.15;;
5987;SDS011;3021;51.000;6.980;2023-03-01T02:43:38;12.73;;;8.05;;
5987;SDS011;3021;51.000;6.980;2023-03-01T02:46:22;14.52;;;8.85;;
5987;SDS011;3021;51.000;6.980;2023-03-01T02:48:51;19.95;;;9.10;;
5987;SDS011;3021;51.000;6.980;2023-03-01T02:51:24;15.70;;;8.07;;
5987;SDS011;3021;51.000;6.980;2023-03-01T02:56:56;13.95;;;7.97;;
5987;SDS011;3021;51.000;6.980;2023-03-01T02:59:24;15.15;;;8.88;;
5987;SDS011;3021;51.000;6.980;2023-03-01T03:01:54;16.08;;;8.57;;
5987;SDS011;3021;51.000;6.980;2023-03-01T03:04:19;15.77;;;9.27;;
5987;SDS011;3021;51.000;6.980;2023-03-01T03:06:46;15.80;;;8.50;;
5987;SDS011;3021;51.000;6.980;2023-03-01T03:09:14;16.48;;;10.05;;
5987;SDS011;3021;51.000;6.980;2023-03-01T03:11:40;13.32;;;8.35;;
5987;SDS011;3021;51.000;6.980;2023-03-01T03:14:07;14.20;;;9.40;;
5987;SDS011;3021;51.000;6.980;2023-03-01T03:16:41;14.95;;;8.63;;
5987;SDS011;3021;51.000;6.980;2023-03-01T03:19:08;17.13;;;9.60;;
5987;SDS011;3021;51.000;6.980;2023-03-01T03:21:34;15.45;;;9.23;;
5987;SDS011;3021;51.000;6.980;2023-03-01T03:23:59;16.35;;;9.20;;
5987;SDS011;3021;51.000;6.980;2023-03-01T03:26:25;18.00;;;9.80;;
5987;SDS011;3021;51.000;6.980;2023-03-01T03:28:50;13.57;;;8.68;;
5987;SDS011;3021;51.000;6.980;2023-03-01T03:31:16;16.65;;;9.02;;
5987;SDS011;3021;51.000;6.980;2023-03-01T03:33:41;14.40;;;9.27;;
5987;SDS011;3021;51.000;6.980;2023-03-01T03:36:07;16.05;;;8.98;;
5987;SDS011;3021;51.000;6.980;2023-03-01T03:38:37;16.15;;;9.15;;
5987;SDS011;3021;51.000;6.980;2023-03-01T03:41:04;14.25;;;9.23;;
5987;SDS011;3021;51.000;6.980;2023-03-01T03:43:32;15.45;;;9.68;;
5987;SDS011;3021;51.000;6.980;2023-03-01T03:45:59;15.82;;;9.07;;
5987;SDS011;3021;51.000;6.980;2023-03-01T03:48:24;14.43;;;8.70;;
5987;SDS011;3021;51.000;6.980;2023-03-01T03:50:52;15.80;;;9.40;;
5987;SDS011;3021;51.000;6.980;2023-03-01T03:53:19;15.25;;;8.88;;
5987;SDS011;3021;51.000;6.980;2023-03-01T03:55:46;17.17;;;8.50;;
5987;SDS011;3021;51.000;6.980;2023-03-01T03:58:14;19.15;;;8.70;;
5987;SDS011;3021;51.000;6.980;2023-03-01T04:00:42;15.30;;;9.32;;
5987;SDS011;3021;51.000;6.980;2023-03-01T04:03:09;17.73;;;9.70;;
5987;SDS011;3021;51.000;6.980;2023-03-01T04:05:36;21.08;;;10.43;;
5987;SDS011;3021;51.000;6.980;2023-03-01T04:08:03;15.60;;;9.60;;
5987;SDS011;3021;51.000;6.980;2023-03-01T04:10:36;16.17;;;9.68;;
5987;SDS011;3021;51.000;6.980;2023-03-01T04:13:03;16.15;;;9.05;;
5987;SDS011;3021;51.000;6.980;2023-03-01T04:15:30;16.95;;;9.50;;
5987;SDS011;3021;51.000;6.980;2023-03-01T04:17:57;15.40;;;9.80;;
5987;SDS011;3021;51.000;6.980;2023-03-01T04:20:24;15.50;;;9.60;;
5987;SDS011;3021;51.000;6.980;2023-03-01T04:25:17;17.27;;;10.38;;
5987;SDS011;3021;51.000;6.980;2023-03-01T04:27:42;21.92;;;12.15;;
5987;SDS011;3021;51.000;6.980;2023-03-01T04:30:08;18.40;;;11.23;;
5987;SDS011;3021;51.000;6.980;2023-03-01T04:32:35;21.17;;;10.98;;
5987;SDS011;3021;51.000;6.980;2023-03-01T04:35:00;18.67;;;11.40;;
5987;SDS011;3021;51.000;6.980;2023-03-01T04:37:26;18.27;;;11.02;;
5987;SDS011;3021;51.000;6.980;2023-03-01T04:39:52;25.95;;;11.48;;
5987;SDS011;3021;51.000;6.980;2023-03-01T04:42:17;20.90;;;11.48;;
5987;SDS011;3021;51.000;6.980;2023-03-01T04:44:44;20.88;;;11.30;;
5987;SDS011;3021;51.000;6.980;2023-03-01T04:47:10;25.23;;;11.85;;
5987;SDS011;3021;51.000;6.980;2023-03-01T04:49:35;18.10;;;10.27;;
5987;SDS011;3021;51.000;6.980;2023-03-01T04:52:00;17.27;;;9.88;;
5987;SDS011;3021;51.000;6.980;2023-03-01T04:54:29;18.52;;;10.60;;
5987;SDS011;3021;51.000;6.980;2023-03-01T04:56:59;20.33;;;11.02;;
5987;SDS011;3021;51.000;6.980;2023-03-01T04:59:25;18.67;;;10.90;;
5987;SDS011;3021;51.000;6.980;2023-03-01T05:01:51;20.58;;;10.85;;
5987;SDS011;3021;51.000;6.980;2023-03-01T05:04:20;21.75;;;11.20;;
5987;SDS011;3021;51.000;6.980;2023-03-01T05:06:46;19.48;;;10.80;;
5987;SDS011;3021;51.000;6.980;2023-03-01T05:09:12;23.85;;;12.02;;
5987;SDS011;3021;51.000;6.980;2023-03-01T05:11:37;21.95;;;12.10;;
5987;SDS011;3021;51.000;6.980;2023-03-01T05:14:03;20.13;;;11.73;;
5987;SDS011;3021;51.000;6.980;2023-03-01T05:16:30;21.95;;;11.18;;
5987;SDS011;3021;51.000;6.980;2023-03-01T05:18:56;20.50;;;11.57;;
5987;SDS011;3021;51.000;6.980;2023-03-01T05:21:22;24.67;;;12.65;;
5987;SDS011;3021;51.000;6.980;2023-03-01T05:23:48;26.17;;;13.00;;
5987;SDS011;3021;51.000;6.980;2023-03-01T05:26:14;23.02;;;12.20;;
5987;SDS011;3021;51.000;6.980;2023-03-01T05:28:40;21.63;;;11.73;;
5987;SDS011;3021;51.000;6.980;2023-03-01T05:31:06;28.15;;;13.05;;
5987;SDS011;3021;51.000;6.980;2023-03-01T05:33:37;19.77;;;11.32;;
5987;SDS011;3021;51.000;6.980;2023-03-01T05:36:04;24.67;;;13.25;;
5987;SDS011;3021;51.000;6.980;2023-03-01T05:38:31;20.50;;;12.40;;
5987;SDS011;3021;51.000;6.980;2023-03-01T05:40:56;24.00;;;11.40;;
5987;SDS011;3021;51.000;6.980;2023-03-01T05:43:21;23.20;;;13.00;;
5987;SDS011;3021;51.000;6.980;2023-03-01T05:45:47;24.23;;;12.18;;
5987;SDS011;3021;51.000;6.980;2023-03-01T05:48:12;23.52;;;12.88;;
5987;SDS011;3021;51.000;6.980;2023-03-01T05:50:41;20.40;;;12.02;;
5987;SDS011;3021;51.000;6.980;2023-03-01T05:53:18;22.88;;;12.80;;
5987;SDS011;3021;51.000;6.980;2023-03-01T05:55:48;23.25;;;12.82;;
5987;SDS011;3021;51.000;6.980;2023-03-01T05:58:15;31.27;;;16.42;;
5987;SDS011;3021;51.000;6.980;2023-03-01T06:00:43;38.30;;;18.90;;
5987;SDS011;3021;51.000;6.980;2023-03-01T06:03:10;34.40;;;17.45;;
5987;SDS011;3021;51.000;6.980;2023-03-01T06:05:37;28.25;;;15.85;;
5987;SDS011;3021;51.000;6.980;2023-03-01T06:08:04;27.58;;;15.73;;
5987;SDS011;3021;51.000;6.980;2023-03-01T06:10:29;29.83;;;15.65;;
5987;SDS011;3021;51.000;6.980;2023-03-01T06:12:55;32.92;;;16.00;;
5987;SDS011;3021;51.000;6.980;2023-03-01T06:15:21;30.20;;;15.05;;
5987;SDS011;3021;51.000;6.980;2023-03-01T06:17:47;26.52;;;14.43;;
5987;SDS011;3021;51.000;6.980;2023-03-01T06:20:14;33.55;;;15.43;;
5987;SDS011;3021;51.000;6.980;2023-03-01T06:22:42;30.10;;;14.23;;
5987;SDS011;3021;51.000;6.980;2023-03-01T06:25:10;23.83;;;13.98;;
5987;SDS011;3021;51.000;6.980;2023-03-01T06:27:37;24.65;;;14.18;;
5987;SDS011;3021;51.000;6.980;2023-03-01T06:30:03;29.02;;;14.50;;
5987;SDS011;3021;51.000;6.980;2023-03-01T06:32:29;26.95;;;14.77;;
5987;SDS011;3021;51.000;6.980;2023-03-01T06:34:55;27.92;;;14.50;;
5987;SDS011;3021;51.000;6.980;2023-03-01T06:37:20;27.27;;;15.48;;
5987;SDS011;3021;51.000;6.980;2023-03-01T06:39:46;24.63;;;14.07;;
5987;SDS011;3021;51.000;6.980;2023-03-01T06:42:11;28.65;;;14.45;;
5987;SDS011;3021;51.000;6.980;2023-03-01T06:44:37;27.90;;;15.32;;
5987;SDS011;3021;51.000;6.980;2023-03-01T06:47:03;26.48;;;14.40;;
5987;SDS011;3021;51.000;6.980;2023-03-01T06:49:29;25.83;;;14.18;;
5987;SDS011;3021;51.000;6.980;2023-03-01T06:51:55;26.85;;;14.52;;
5987;SDS011;3021;51.000;6.980;2023-03-01T06:54:21;31.10;;;14.43;;
5987;SDS011;3021;51.000;6.980;2023-03-01T06:56:49;26.48;;;15.15;;
5987;SDS011;3021;51.000;6.980;2023-03-01T06:59:15;33.88;;;14.88;;
5987;SDS011;3021;51.000;6.980;2023-03-01T07:01:41;27.83;;;14.43;;
5987;SDS011;3021;51.000;6.980;2023-03-01T07:04:07;26.80;;;14.68;;
5987;SDS011;3021;51.000;6.980;2023-03-01T07:06:32;30.13;;;13.63;;
5987;SDS011;3021;51.000;6.980;2023-03-01T07:08:58;25.20;;;14.10;;
5987;SDS011;3021;51.000;6.980;2023-03-01T07:11:23;23.38;;;13.07;;
5987;SDS011;3021;51.000;6.980;2023-03-01T07:13:49;24.48;;;13.23;;
5987;SDS011;3021;51.000;6.980;2023-03-01T07:16:14;26.58;;;14.00;;
5987;SDS011;3021;51.000;6.980;2023-03-01T07:18:40;27.05;;;14.13;;
5987;SDS011;3021;51.000;6.980;2023-03-01T07:21:07;23.88;;;13.90;;
5987;SDS011;3021;51.000;6.980;2023-03-01T07:23:34;24.88;;;13.43;;
5987;SDS011;3021;51.000;6.980;2023-03-01T07:26:00;24.25;;;14.00;;
5987;SDS011;3021;51.000;6.980;2023-03-01T07:28:25;24.33;;;13.80;;
5987;SDS011;3021;51.000;6.980;2023-03-01T07:30:52;23.15;;;13.32;;
5987;SDS011;3021;51.000;6.980;2023-03-01T07:33:17;18.88;;;12.20;;
5987;SDS011;3021;51.000;6.980;2023-03-01T07:35:43;25.60;;;12.98;;
5987;SDS011;3021;51.000;6.980;2023-03-01T07:38:08;21.33;;;13.10;;
5987;SDS011;3021;51.000;6.980;2023-03-01T07:40:34;22.55;;;13.00;;
5987;SDS011;3021;51.000;6.980;2023-03-01T07:43:00;22.48;;;12.63;;
5987;SDS011;3021;51.000;6.980;2023-03-01T07:45:29;24.17;;;13.13;;
5987;SDS011;3021;51.000;6.980;2023-03-01T07:47:57;23.13;;;12.38;;
5987;SDS011;3021;51.000;6.980;2023-03-01T07:50:23;20.02;;;11.95;;
5987;SDS011;3021;51.000;6.980;2023-03-01T07:52:49;22.80;;;12.50;;
5987;SDS011;3021;51.000;6.980;2023-03-01T07:55:15;18.30;;;10.75;;
5987;SDS011;3021;51.000;6.980;2023-03-01T08:21:02;16.98;;;10.20;;
5987;SDS011;3021;51.000;6.980;2023-03-01T08:23:34;14.32;;;10.10;;
5987;SDS011;3021;51.000;6.980;2023-03-01T08:26:04;15.15;;;10.20;;
5987;SDS011;3021;51.000;6.980;2023-03-01T08:28:31;17.67;;;10.55;;
5987;SDS011;3021;51.000;6.980;2023-03-01T08:30:57;23.33;;;12.40;;
5987;SDS011;3021;51.000;6.980;2023-03-01T08:33:22;15.52;;;11.05;;
5987;SDS011;3021;51.000;6.980;2023-03-01T08:35:49;17.92;;;10.90;;
5987;SDS011;3021;51.000;6.980;2023-03-01T08:38:14;18.45;;;11.02;;
5987;SDS011;3021;51.000;6.980;2023-03-01T08:40:40;18.02;;;10.80;;
5987;SDS011;3021;51.000;6.980;2023-03-01T08:43:05;19.10;;;11.20;;
5987;SDS011;3021;51.000;6.980;2023-03-01T08:45:31;17.58;;;11.80;;
5987;SDS011;3021;51.000;6.980;2023-03-01T08:47:56;20.05;;;11.32;;
5987;SDS011;3021;51.000;6.980;2023-03-01T08:50:23;16.52;;;10.82;;
5987;SDS011;3021;51.000;6.980;2023-03-01T08:52:49;16.00;;;10.10;;
5987;SDS011;3021;51.000;6.980;2023-03-01T08:55:15;15.88;;;10.02;;
5987;SDS011;3021;51.000;6.980;2023-03-01T08:57:42;17.38;;;10.45;;
5987;SDS011;3021;51.000;6.980;2023-03-01T09:00:08;17.70;;;10.75;;
5987;SDS011;3021;51.000;6.980;2023-03-01T09:02:34;16.95;;;10.70;;
5987;SDS011;3021;51.000;6.980;2023-03-01T09:04:59;16.63;;;9.93;;
5987;SDS011;3021;51.000;6.980;2023-03-01T09:07:26;16.27;;;10.15;;
5987;SDS011;3021;51.000;6.980;2023-03-01T09:09:53;17.85;;;10.00;;
5987;SDS011;3021;51.000;6.980;2023-03-01T09:12:19;16.88;;;10.23;;
5987;SDS011;3021;51.000;6.980;2023-03-01T09:14:44;20.45;;;10.50;;
5987;SDS011;3021;51.000;6.980;2023-03-01T09:17:10;17.55;;;10.02;;
5987;SDS011;3021;51.000;6.980;2023-03-01T09:19:35;13.90;;;9.25;;
5987;SDS011;3021;51.000;6.980;2023-03-01T09:22:02;16.50;;;9.80;;
5987;SDS011;3021;51.000;6.980;2023-03-01T09:24:28;14.75;;;9.10;;
5987;SDS011;3021;51.000;6.980;2023-03-01T09:26:54;13.43;;;9.02;;
5987;SDS011;3021;51.000;6.980;2023-03-01T09:29:20;15.95;;;9.30;;
5987;SDS011;3021;51.000;6.980;2023-03-01T09:31:47;18.92;;;9.77;;
5987;SDS011;3021;51.000;6.980;2023-03-01T09:34:12;14.27;;;9.30;;
5987;SDS011;3021;51.000;6.980;2023-03-01T09:36:41;14.57;;;9.48;;
5987;SDS011;3021;51.000;6.980;2023-03-01T09:39:06;17.60;;;9.52;;
5987;SDS011;3021;51.000;6.980;2023-03-01T09:46:56;13.88;;;9.27;;
5987;SDS011;3021;51.000;6.980;2023-03-01T09:49:25;13.93;;;9.90;;
5987;SDS011;3021;51.000;6.980;2023-03-01T09:52:00;14.40;;;9.05;;
5987;SDS011;3021;51.000;6.980;2023-03-01T09:54:37;14.45;;;9.68;;
5987;SDS011;3021;51.000;6.980;2023-03-01T10:10:26;13.20;;;8.95;;
5987;SDS011;3021;51.000;6.980;2023-03-01T10:13:19;11.95;;;8.40;;
5987;SDS011;3021;51.000;6.980;2023-03-01T10:16:27;13.65;;;9.57;;
5987;SDS011;3021;51.000;6.980;2023-03-01T10:19:21;12.13;;;8.82;;
5987;SDS011;3021;51.000;6.980;2023-03-01T10:21:54;11.60;;;8.32;;
5987;SDS011;3021;51.000;6.980;2023-03-01T10:24:34;10.90;;;8.73;;
5987;SDS011;3021;51.000;6.980;2023-03-01T10:27:03;12.30;;;8.98;;
5987;SDS011;3021;51.000;6.980;2023-03-01T10:29:46;11.73;;;8.77;;
5987;SDS011;3021;51.000;6.980;2023-03-01T10:32:24;12.38;;;9.20;;
5987;SDS011;3021;51.000;6.980;2023-03-01T10:34:50;12.98;;;8.85;;
5987;SDS011;3021;51.000;6.980;2023-03-01T10:37:17;12.07;;;8.82;;
5987;SDS011;3021;51.000;6.980;2023-03-01T10:40:03;14.00;;;9.55;;
5987;SDS011;3021;51.000;6.980;2023-03-01T10:42:34;13.10;;;9.00;;
5987;SDS011;3021;51.000;6.980;2023-03-01T10:45:30;13.10;;;8.73;;
5987;SDS011;3021;51.000;6.980;2023-03-01T10:50:40;13.98;;;9.40;;
5987;SDS011;3021;51.000;6.980;2023-03-01T10:53:16;16.75;;;9.27;;
5987;SDS011;3021;51.000;6.980;2023-03-01T10:56:10;14.80;;;9.18;;
5987;SDS011;3021;51.000;6.980;2023-03-01T10:59:02;13.20;;;9.38;;
5987;SDS011;3021;51.000;6.980;2023-03-01T11:01:30;13.75;;;9.68;;
5987;SDS011;3021;51.000;6.980;2023-03-01T11:09:15;14.15;;;9.20;;
5987;SDS011;3021;51.000;6.980;2023-03-01T11:11:45;17.15;;;10.00;;
5987;SDS011;3021;51.000;6.980;2023-03-01T11:14:26;15.48;;;10.40;;
5987;SDS011;3021;51.000;6.980;2023-03-01T11:17:03;16.83;;;9.80;;
5987;SDS011;3021;51.000;6.980;2023-03-01T11:26:55;16.40;;;9.63;;
5987;SDS011;3021;51.000;6.980;2023-03-01T11:32:06;14.98;;;10.07;;
5987;SDS011;3021;51.000;6.980;2023-03-01T11:37:40;18.33;;;10.30;;
5987;SDS011;3021;51.000;6.980;2023-03-01T11:40:16;17.25;;;10.45;;
5987;SDS011;3021;51.000;6.980;2023-03-01T11:42:50;14.32;;;10.18;;
5987;SDS011;3021;51.000;6.980;2023-03-01T11:45:42;17.13;;;10.15;;
5987;SDS011;3021;51.000;6.980;2023-03-01T11:48:17;16.20;;;9.75;;
5987;SDS011;3021;51.000;6.980;2023-03-01T11:51:05;19.08;;;10.85;;
5987;SDS011;3021;51.000;6.980;2023-03-01T11:53:43;14.70;;;9.80;;
5987;SDS011;3021;51.000;6.980;2023-03-01T11:56:40;16.63;;;10.15;;
5987;SDS011;3021;51.000;6.980;2023-03-01T11:59:20;14.35;;;9.95;;
5987;SDS011;3021;51.000;6.980;2023-03-01T12:07:43;18.50;;;10.07;;
5987;SDS011;3021;51.000;6.980;2023-03-01T12:26:07;16.70;;;9.65;;
5987;SDS011;3021;51.000;6.980;2023-03-01T12:34:26;15.27;;;9.95;;
5987;SDS011;3021;51.000;6.980;2023-03-01T12:37:36;15.70;;;9.68;;
5987;SDS011;3021;51.000;6.980;2023-03-01T12:40:15;14.57;;;9.43;;
5987;SDS011;3021;51.000;6.980;2023-03-01T12:42:55;13.18;;;9.25;;
5987;SDS011;3021;51.000;6.980;2023-03-01T12:45:27;16.65;;;9.55;;
5987;SDS011;3021;51.000;6.980;2023-03-01T12:48:08;17.27;;;10.35;;
5987;SDS011;3021;51.000;6.980;2023-03-01T12:50:42;17.17;;;9.82;;
5987;SDS011;3021;51.000;6.980;2023-03-01T12:56:13;16.63;;;10.68;;
5987;SDS011;3021;51.000;6.980;2023-03-01T12:58:49;18.05;;;10.48;;
5987;SDS011;3021;51.000;6.980;2023-03-01T13:04:18;16.20;;;9.32;;
5987;SDS011;3021;51.000;6.980;2023-03-01T13:06:54;18.27;;;10.38;;
5987;SDS011;3021;51.000;6.980;2023-03-01T13:09:25;17.50;;;10.70;;
5987;SDS011;3021;51.000;6.980;2023-03-01T13:11:58;15.23;;;9.48;;
5987;SDS011;3021;51.000;6.980;2023-03-01T13:16:50;13.70;;;9.05;;
5987;SDS011;3021;51.000;6.980;2023-03-01T13:19:20;16.58;;;9.23;;
5987;SDS011;3021;51.000;6.980;2023-03-01T13:21:48;18.40;;;10.25;;
5987;SDS011;3021;51.000;6.980;2023-03-01T13:32:30;15.20;;;8.95;;
5987;SDS011;3021;51.000;6.980;2023-03-01T13:35:00;15.60;;;8.77;;
5987;SDS011;3021;51.000;6.980;2023-03-01T13:37:48;14.05;;;8.98;;
5987;SDS011;3021;51.000;6.980;2023-03-01T13:42:48;16.65;;;8.30;;
5987;SDS011;3021;51.000;6.980;2023-03-01T13:45:20;12.32;;;8.38;;
5987;SDS011;3021;51.000;6.980;2023-03-01T13:47:53;14.32;;;9.32;;
5987;SDS011;3021;51.000;6.980;2023-03-01T13:50:24;13.05;;;8.27;;
5987;SDS011;3021;51.000;6.980;2023-03-01T13:55:22;13.07;;;8.10;;
5987;SDS011;3021;51.000;6.980;2023-03-01T13:57:53;12.82;;;7.38;;
5987;SDS011;3021;51.000;6.980;2023-03-01T14:00:28;13.13;;;8.00;;
5987;SDS011;3021;51.000;6.980;2023-03-01T14:03:00;13.40;;;7.80;;
5987;SDS011;3021;51.000;6.980;2023-03-01T14:05:31;12.10;;;7.32;;
5987;SDS011;3021;51.000;6.980;2023-03-01T14:07:57;11.25;;;7.97;;
5987;SDS011;3021;51.000;6.980;2023-03-01T14:10:23;13.20;;;8.05;;
5987;SDS011;3021;51.000;6.980;2023-03-01T14:13:00;10.65;;;7.38;;
5987;SDS011;3021;51.000;6.980;2023-03-01T14:15:33;17.98;;;8.88;;
5987;SDS011;3021;51.000;6.980;2023-03-01T14:18:04;18.10;;;9.45;;
5987;SDS011;3021;51.000;6.980;2023-03-01T14:20:32;12.38;;;7.78;;
5987;SDS011;3021;51.000;6.980;2023-03-01T14:23:08;19.08;;;8.88;;
5987;SDS011;3021;51.000;6.980;2023-03-01T14:25:36;14.27;;;8.07;;
5987;SDS011;3021;51.000;6.980;2023-03-01T14:30:42;14.60;;;8.93;;
5987;SDS011;3021;51.000;6.980;2023-03-01T14:35:54;14.52;;;8.60;;
5987;SDS011;3021;51.000;6.980;2023-03-01T14:38:23;19.42;;;9.25;;
5987;SDS011;3021;51.000;6.980;2023-03-01T14:40:55;14.95;;;8.20;;
5987;SDS011;3021;51.000;6.980;2023-03-01T14:43:23;16.48;;;8.88;;
5987;SDS011;3021;51.000;6.980;2023-03-01T14:45:51;15.55;;;8.45;;
5987;SDS011;3021;51.000;6.980;2023-03-01T14:48:16;13.82;;;8.70;;
5987;SDS011;3021;51.000;6.980;2023-03-01T14:50:43;13.65;;;8.45;;
5987;SDS011;3021;51.000;6.980;2023-03-01T14:53:17;13.95;;;8.75;;
5987;SDS011;3021;51.000;6.980;2023-03-01T14:55:57;15.38;;;9.25;;
5987;SDS011;3021;51.000;6.980;2023-03-01T14:58:31;11.25;;;8.20;;
5987;SDS011;3021;51.000;6.980;2023-03-01T15:00:59;19.95;;;8.98;;
5987;SDS011;3021;51.000;6.980;2023-03-01T15:03:32;14.70;;;8.52;;
5987;SDS011;3021;51.000;6.980;2023-03-01T15:06:02;16.02;;;9.18;;
5987;SDS011;3021;51.000;6.980;2023-03-01T15:08:29;16.70;;;9.60;;
5987;SDS011;3021;51.000;6.980;2023-03-01T15:13:31;16.15;;;9.27;;
5987;SDS011;3021;51.000;6.980;2023-03-01T15:16:17;23.75;;;8.80;;
5987;SDS011;3021;51.000;6.980;2023-03-01T15:18:46;16.40;;;8.23;;
5987;SDS011;3021;51.000;6.980;2023-03-01T15:23:47;15.75;;;8.95;;
5987;SDS011;3021;51.000;6.980;2023-03-01T15:26:35;17.75;;;8.88;;
5987;SDS011;3021;51.000;6.980;2023-03-01T15:29:10;13.02;;;8.18;;
5987;SDS011;3021;51.000;6.980;2023-03-01T15:31:53;14.93;;;8.23;;
5987;SDS011;3021;51.000;6.980;2023-03-01T15:34:23;13.82;;;7.53;;
5987;SDS011;3021;51.000;6.980;2023-03-01T15:36:52;16.98;;;8.57;;
5987;SDS011;3021;51.000;6.980;2023-03-01T15:42:12;13.10;;;7.43;;
5987;SDS011;3021;51.000;6.980;2023-03-01T15:48:05;10.82;;;7.50;;
5987;SDS011;3021;51.000;6.980;2023-03-01T15:50:42;13.32;;;7.72;;
5987;SDS011;3021;51.000;6.980;2023-03-01T15:53:12;14.55;;;7.70;;
5987;SDS011;3021;51.000;6.980;2023-03-01T15:55:40;13.00;;;7.85;;
5987;SDS011;3021;51.000;6.980;2023-03-01T15:58:10;12.63;;;7.57;;
5987;SDS011;3021;51.000;6.980;2023-03-01T16:00:39;13.93;;;8.48;;
5987;SDS011;3021;51.000;6.980;2023-03-01T16:03:05;12.48;;;7.90;;
5987;SDS011;3021;51.000;6.980;2023-03-01T16:05:34;15.82;;;7.70;;
5987;SDS011;3021;51.000;6.980;2023-03-01T16:08:01;14.98;;;7.15;;
5987;SDS011;3021;51.000;6.980;2023-03-01T16:10:28;13.57;;;7.45;;
5987;SDS011;3021;51.000;6.980;2023-03-01T16:12:54;12.85;;;7.72;;
5987;SDS011;3021;51.000;6.980;2023-03-01T16:15:21;11.13;;;7.03;;
5987;SDS011;3021;51.000;6.980;2023-03-01T16:17:48;14.18;;;7.68;;
5987;SDS011;3021;51.000;6.980;2023-03-01T16:20:14;15.65;;;7.32;;
5987;SDS011;3021;51.000;6.980;2023-03-01T16:22:41;17.70;;;7.13;;
5987;SDS011;3021;51.000;6.980;2023-03-01T16:25:08;13.43;;;7.50;;
5987;SDS011;3021;51.000;6.980;2023-03-01T16:27:37;12.73;;;6.95;;
5987;SDS011;3021;51.000;6.980;2023-03-01T16:30:04;15.40;;;7.35;;
5987;SDS011;3021;51.000;6.980;2023-03-01T16:32:30;11.73;;;7.57;;
5987;SDS011;3021;51.000;6.980;2023-03-01T16:34:56;11.95;;;7.10;;
5987;SDS011;3021;51.000;6.980;2023-03-01T16:37:22;12.85;;;7.60;;
5987;SDS011;3021;51.000;6.980;2023-03-01T16:39:48;14.48;;;7.10;;
5987;SDS011;3021;51.000;6.980;2023-03-01T16:42:17;12.02;;;7.30;;
5987;SDS011;3021;51.000;6.980;2023-03-01T16:44:42;13.60;;;7.20;;
5987;SDS011;3021;51.000;6.980;2023-03-01T16:47:08;12.60;;;7.15;;
5987;SDS011;3021;51.000;6.980;2023-03-01T16:49:34;12.20;;;7.28;;
5987;SDS011;3021;51.000;6.980;2023-03-01T16:51:59;15.25;;;6.60;;
5987;SDS011;3021;51.000;6.980;2023-03-01T16:54:25;11.55;;;6.95;;
5987;SDS011;3021;51.000;6.980;2023-03-01T16:56:51;12.65;;;7.35;;
5987;SDS011;3021;51.000;6.980;2023-03-01T16:59:16;12.32;;;7.50;;
5987;SDS011;3021;51.000;6.980;2023-03-01T17:01:44;12.85;;;7.22;;
5987;SDS011;3021;51.000;6.980;2023-03-01T17:04:10;16.35;;;7.50;;
5987;SDS011;3021;51.000;6.980;2023-03-01T17:06:37;13.48;;;7.15;;
5987;SDS011;3021;51.000;6.980;2023-03-01T17:09:02;13.23;;;7.50;;
5987;SDS011;3021;51.000;6.980;2023-03-01T17:11:28;13.50;;;7.40;;
5987;SDS011;3021;51.000;6.980;2023-03-01T17:13:54;13.02;;;7.05;;
5987;SDS011;3021;51.000;6.980;2023-03-01T17:16:20;13.98;;;6.75;;
5987;SDS011;3021;51.000;6.980;2023-03-01T17:18:46;13.05;;;7.25;;
5987;SDS011;3021;51.000;6.980;2023-03-01T17:21:12;11.98;;;6.53;;
5987;SDS011;3021;51.000;6.980;2023-03-01T17:23:40;14.93;;;7.85;;
5987;SDS011;3021;51.000;6.980;2023-03-01T17:26:07;13.43;;;7.35;;
5987;SDS011;3021;51.000;6.980;2023-03-01T17:28:34;14.02;;;7.82;;
5987;SDS011;3021;51.000;6.980;2023-03-01T17:31:02;11.02;;;7.10;;